sensor_id;sensor_type;location;lat;lon;timestamp;P1;durP1;ratioP1;P2;durP2;ratioP2
16119;SDS011;12670;53.502;10.252;2024-02-28T00:02:14;47.00;;;21.93;;
16119;SDS011;12670;53.502;10.252;2024-02-28T00:05:17;16.50;;;9.40;;
16119;SDS011;12670;53.502;10.252;2024-02-28T00:08:19;13.27;;;8.70;;
16119;SDS011;12670;53.502;10.252;2024-02-28T00:11:22;16.33;;;9.53;;
16119;SDS011;12670;53.502;10.252;2024-02-28T00:14:25;14.23;;;9.17;;
16119;SDS011;12670;53.502;10.252;2024-02-28T00:17:29;15.77;;;9.87;;
16119;SDS011;12670;53.502;10.252;2024-02-28T00:20:32;15.77;;;9.60;;
16119;SDS011;12670;53.502;10.252;2024-02-28T00:23:35;14.53;;;9.20;;
16119;SDS011;12670;53.502;10.252;2024-02-28T00:26:40;14.63;;;9.10;;
16119;SDS011;12670;53.502;10.252;2024-02-28T00:29:43;17.53;;;9.60;;
16119;SDS011;12670;53.502;10.252;2024-02-28T00:32:48;15.43;;;9.33;;
16119;SDS011;12670;53.502;10.252;2024-02-28T00:35:51;17.33;;;9.93;;
16119;SDS011;12670;53.502;10.252;2024-02-28T00:38:55;17.20;;;9.63;;
16119;SDS011;12670;53.502;10.252;2024-02-28T00:41:57;16.97;;;9.40;;
16119;SDS011;12670;53.502;10.252;2024-02-28T00:45:00;16.00;;;9.13;;
16119;SDS011;12670;53.502;10.252;2024-02-28T00:48:05;14.60;;;9.30;;
16119;SDS011;12670;53.502;10.252;2024-02-28T00:51:09;14.50;;;8.70;;
16119;SDS011;12670;53.502;10.252;2024-02-28T00:54:11;14.47;;;9.33;;
16119;SDS011;12670;53.502;10.252;2024-02-28T00:57:14;15.23;;;9.40;;
16119;SDS011;12670;53.502;10.252;2024-02-28T01:00:17;12.83;;;8.73;;
16119;SDS011;12670;53.502;10.252;2024-02-28T01:03:22;16.10;;;9.67;;
16119;SDS011;12670;53.502;10.252;2024-02-28T01:06:24;16.97;;;9.17;;
16119;SDS011;12670;53.502;10.252;2024-02-28T01:09:27;17.63;;;10.30;;
16119;SDS011;12670;53.502;10.252;2024-02-28T01:12:30;15.90;;;9.50;;
16119;SDS011;12670;53.502;10.252;2024-02-28T01:15:32;17.10;;;10.20;;
16119;SDS011;12670;53.502;10.252;2024-02-28T01:18:37;17.13;;;9.63;;
16119;SDS011;12670;53.502;10.252;2024-02-28T01:21:40;19.87;;;10.40;;
16119;SDS011;12670;53.502;10.252;2024-02-28T01:24:42;19.60;;;10.77;;
16119;SDS011;12670;53.502;10.252;2024-02-28T01:27:45;18.73;;;10.77;;
16119;SDS011;12670;53.502;10.252;2024-02-28T01:30:48;19.47;;;11.80;;
16119;SDS011;12670;53.502;10.252;2024-02-28T01:33:52;18.70;;;11.33;;
16119;SDS011;12670;53.502;10.252;2024-02-28T01:36:55;17.93;;;11.87;;
16119;SDS011;12670;53.502;10.252;2024-02-28T01:39:58;17.93;;;11.43;;
16119;SDS011;12670;53.502;10.252;2024-02-28T01:43:04;17.37;;;11.40;;
16119;SDS011;12670;53.502;10.252;2024-02-28T01:46:13;19.10;;;11.93;;
16119;SDS011;12670;53.502;10.252;2024-02-28T01:49:24;17.47;;;11.80;;
16119;SDS011;12670;53.502;10.252;2024-02-28T01:52:27;17.87;;;12.00;;
16119;SDS011;12670;53.502;10.252;2024-02-28T01:55:31;20.60;;;12.27;;
16119;SDS011;12670;53.502;10.252;2024-02-28T01:58:34;19.43;;;12.07;;
16119;SDS011;12670;53.502;10.252;2024-02-28T02:01:37;21.33;;;13.30;;
16119;SDS011;12670;53.502;10.252;2024-02-28T02:04:41;19.37;;;11.90;;
16119;SDS011;12670;53.502;10.252;2024-02-28T02:07:44;20.97;;;12.17;;
16119;SDS011;12670;53.502;10.252;2024-02-28T02:10:46;19.13;;;11.90;;
16119;SDS011;12670;53.502;10.252;2024-02-28T02:13:49;19.73;;;12.77;;
16119;SDS011;12670;53.502;10.252;2024-02-28T02:16:52;20.00;;;12.83;;
16119;SDS011;12670;53.502;10.252;2024-02-28T02:19:57;22.67;;;13.57;;
16119;SDS011;12670;53.502;10.252;2024-02-28T02:23:01;21.30;;;13.27;;
16119;SDS011;12670;53.502;10.252;2024-02-28T02:26:04;22.30;;;13.37;;
16119;SDS011;12670;53.502;10.252;2024-02-28T02:29:07;22.17;;;14.17;;
16119;SDS011;12670;53.502;10.252;2024-02-28T02:32:10;21.97;;;13.37;;
16119;SDS011;12670;53.502;10.252;2024-02-28T02:35:13;22.33;;;13.97;;
16119;SDS011;12670;53.502;10.252;2024-02-28T02:38:17;21.93;;;13.77;;
16119;SDS011;12670;53.502;10.252;2024-02-28T02:41:20;23.23;;;14.20;;
16119;SDS011;12670;53.502;10.252;2024-02-28T02:44:22;24.10;;;14.17;;
16119;SDS011;12670;53.502;10.252;2024-02-28T02:47:25;24.73;;;14.03;;
16119;SDS011;12670;53.502;10.252;2024-02-28T02:50:28;24.13;;;13.77;;
16119;SDS011;12670;53.502;10.252;2024-02-28T02:53:32;26.37;;;14.83;;
16119;SDS011;12670;53.502;10.252;2024-02-28T02:56:35;26.83;;;14.67;;
16119;SDS011;12670;53.502;10.252;2024-02-28T02:59:37;25.67;;;14.50;;
16119;SDS011;12670;53.502;10.252;2024-02-28T03:02:40;22.73;;;14.00;;
16119;SDS011;12670;53.502;10.252;2024-02-28T03:05:43;23.07;;;14.57;;
16119;SDS011;12670;53.502;10.252;2024-02-28T03:08:47;25.63;;;14.60;;
16119;SDS011;12670;53.502;10.252;2024-02-28T03:11:49;28.60;;;14.60;;
16119;SDS011;12670;53.502;10.252;2024-02-28T03:14:52;25.07;;;14.60;;
16119;SDS011;12670;53.502;10.252;2024-02-28T03:17:55;26.23;;;15.00;;
16119;SDS011;12670;53.502;10.252;2024-02-28T03:20:57;26.70;;;14.80;;
16119;SDS011;12670;53.502;10.252;2024-02-28T03:24:01;26.77;;;14.53;;
16119;SDS011;12670;53.502;10.252;2024-02-28T03:27:04;27.50;;;15.03;;
16119;SDS011;12670;53.502;10.252;2024-02-28T03:30:07;28.40;;;15.27;;
16119;SDS011;12670;53.502;10.252;2024-02-28T03:33:10;32.93;;;15.83;;
16119;SDS011;12670;53.502;10.252;2024-02-28T03:36:13;30.50;;;15.70;;
16119;SDS011;12670;53.502;10.252;2024-02-28T03:39:17;28.07;;;15.53;;
16119;SDS011;12670;53.502;10.252;2024-02-28T03:42:20;33.03;;;16.57;;
16119;SDS011;12670;53.502;10.252;2024-02-28T03:45:23;32.23;;;16.50;;
16119;SDS011;12670;53.502;10.252;2024-02-28T03:48:26;33.33;;;16.77;;
16119;SDS011;12670;53.502;10.252;2024-02-28T03:51:29;36.50;;;16.93;;
16119;SDS011;12670;53.502;10.252;2024-02-28T03:54:33;33.30;;;16.77;;
16119;SDS011;12670;53.502;10.252;2024-02-28T03:57:37;30.67;;;16.70;;
16119;SDS011;12670;53.502;10.252;2024-02-28T04:00:40;31.70;;;16.33;;
16119;SDS011;12670;53.502;10.252;2024-02-28T04:03:46;33.07;;;16.53;;
16119;SDS011;12670;53.502;10.252;2024-02-28T04:06:48;27.60;;;15.03;;
16119;SDS011;12670;53.502;10.252;2024-02-28T04:09:52;33.80;;;15.27;;
16119;SDS011;12670;53.502;10.252;2024-02-28T04:12:55;34.57;;;16.93;;
16119;SDS011;12670;53.502;10.252;2024-02-28T04:15:58;31.77;;;15.83;;
16119;SDS011;12670;53.502;10.252;2024-02-28T04:19:02;27.67;;;15.20;;
16119;SDS011;12670;53.502;10.252;2024-02-28T04:22:04;37.47;;;17.07;;
16119;SDS011;12670;53.502;10.252;2024-02-28T04:25:09;31.83;;;16.00;;
16119;SDS011;12670;53.502;10.252;2024-02-28T04:28:12;31.17;;;16.03;;
16119;SDS011;12670;53.502;10.252;2024-02-28T04:31:15;30.17;;;15.57;;
16119;SDS011;12670;53.502;10.252;2024-02-28T04:34:17;30.30;;;16.00;;
16119;SDS011;12670;53.502;10.252;2024-02-28T04:37:20;31.03;;;16.00;;
16119;SDS011;12670;53.502;10.252;2024-02-28T04:40:25;31.67;;;16.37;;
16119;SDS011;12670;53.502;10.252;2024-02-28T04:43:27;33.07;;;15.73;;
16119;SDS011;12670;53.502;10.252;2024-02-28T04:46:30;32.33;;;16.83;;
16119;SDS011;12670;53.502;10.252;2024-02-28T04:49:32;33.93;;;16.93;;
16119;SDS011;12670;53.502;10.252;2024-02-28T04:52:38;29.50;;;14.90;;
16119;SDS011;12670;53.502;10.252;2024-02-28T04:55:42;30.07;;;16.13;;
16119;SDS011;12670;53.502;10.252;2024-02-28T04:58:45;32.73;;;15.90;;
16119;SDS011;12670;53.502;10.252;2024-02-28T05:01:47;29.63;;;15.97;;
16119;SDS011;12670;53.502;10.252;2024-02-28T05:04:50;34.87;;;16.20;;
16119;SDS011;12670;53.502;10.252;2024-02-28T05:07:53;28.13;;;15.03;;
16119;SDS011;12670;53.502;10.252;2024-02-28T05:10:57;30.47;;;15.03;;
16119;SDS011;12670;53.502;10.252;2024-02-28T05:13:59;28.00;;;15.13;;
16119;SDS011;12670;53.502;10.252;2024-02-28T05:17:02;29.97;;;15.57;;
16119;SDS011;12670;53.502;10.252;2024-02-28T05:20:06;28.83;;;15.40;;
16119;SDS011;12670;53.502;10.252;2024-02-28T05:23:10;28.70;;;15.43;;
16119;SDS011;12670;53.502;10.252;2024-02-28T05:26:14;26.67;;;13.87;;
16119;SDS011;12670;53.502;10.252;2024-02-28T05:29:16;25.10;;;13.77;;
16119;SDS011;12670;53.502;10.252;2024-02-28T05:32:19;23.73;;;13.43;;
16119;SDS011;12670;53.502;10.252;2024-02-28T05:35:22;26.93;;;14.40;;
16119;SDS011;12670;53.502;10.252;2024-02-28T05:38:25;23.97;;;12.77;;
16119;SDS011;12670;53.502;10.252;2024-02-28T05:41:29;22.13;;;12.70;;
16119;SDS011;12670;53.502;10.252;2024-02-28T05:44:32;21.67;;;11.97;;
16119;SDS011;12670;53.502;10.252;2024-02-28T05:47:35;23.10;;;12.17;;
16119;SDS011;12670;53.502;10.252;2024-02-28T05:50:38;25.37;;;12.53;;
16119;SDS011;12670;53.502;10.252;2024-02-28T05:53:41;22.40;;;12.23;;
16119;SDS011;12670;53.502;10.252;2024-02-28T05:56:45;25.37;;;11.40;;
16119;SDS011;12670;53.502;10.252;2024-02-28T05:59:48;22.07;;;10.80;;
16119;SDS011;12670;53.502;10.252;2024-02-28T06:02:50;21.97;;;11.73;;
16119;SDS011;12670;53.502;10.252;2024-02-28T06:05:53;22.33;;;11.20;;
16119;SDS011;12670;53.502;10.252;2024-02-28T06:08:58;17.80;;;10.60;;
16119;SDS011;12670;53.502;10.252;2024-02-28T06:12:03;21.47;;;11.37;;
16119;SDS011;12670;53.502;10.252;2024-02-28T06:15:06;20.43;;;10.80;;
16119;SDS011;12670;53.502;10.252;2024-02-28T06:18:09;20.60;;;11.90;;
16119;SDS011;12670;53.502;10.252;2024-02-28T06:21:12;20.77;;;11.93;;
16119;SDS011;12670;53.502;10.252;2024-02-28T06:24:16;23.43;;;11.63;;
16119;SDS011;12670;53.502;10.252;2024-02-28T06:27:20;21.07;;;12.37;;
16119;SDS011;12670;53.502;10.252;2024-02-28T06:30:22;26.07;;;12.57;;
16119;SDS011;12670;53.502;10.252;2024-02-28T06:33:25;21.07;;;12.27;;
16119;SDS011;12670;53.502;10.252;2024-02-28T06:36:28;19.90;;;11.33;;
16119;SDS011;12670;53.502;10.252;2024-02-28T06:39:31;21.23;;;12.23;;
16119;SDS011;12670;53.502;10.252;2024-02-28T06:42:35;20.47;;;11.83;;
16119;SDS011;12670;53.502;10.252;2024-02-28T06:45:38;21.83;;;12.13;;
16119;SDS011;12670;53.502;10.252;2024-02-28T06:48:41;21.70;;;12.37;;
16119;SDS011;12670;53.502;10.252;2024-02-28T06:51:44;22.60;;;11.67;;
16119;SDS011;12670;53.502;10.252;2024-02-28T06:54:47;19.73;;;11.60;;
16119;SDS011;12670;53.502;10.252;2024-02-28T06:57:51;21.57;;;11.67;;
16119;SDS011;12670;53.502;10.252;2024-02-28T07:00:54;24.67;;;11.50;;
16119;SDS011;12670;53.502;10.252;2024-02-28T07:04:00;20.30;;;11.13;;
16119;SDS011;12670;53.502;10.252;2024-02-28T07:07:03;19.27;;;10.97;;
16119;SDS011;12670;53.502;10.252;2024-02-28T07:10:06;20.80;;;11.63;;
16119;SDS011;12670;53.502;10.252;2024-02-28T07:13:10;23.47;;;11.97;;
16119;SDS011;12670;53.502;10.252;2024-02-28T07:16:13;21.30;;;11.60;;
16119;SDS011;12670;53.502;10.252;2024-02-28T07:19:16;20.77;;;11.40;;
16119;SDS011;12670;53.502;10.252;2024-02-28T07:22:19;24.73;;;12.53;;
16119;SDS011;12670;53.502;10.252;2024-02-28T07:25:22;22.80;;;11.97;;
16119;SDS011;12670;53.502;10.252;2024-02-28T07:28:26;21.07;;;11.87;;
16119;SDS011;12670;53.502;10.252;2024-02-28T07:31:29;22.07;;;11.33;;
16119;SDS011;12670;53.502;10.252;2024-02-28T07:34:31;22.07;;;11.90;;
16119;SDS011;12670;53.502;10.252;2024-02-28T07:37:35;22.57;;;11.57;;
16119;SDS011;12670;53.502;10.252;2024-02-28T07:40:39;26.53;;;12.10;;
16119;SDS011;12670;53.502;10.252;2024-02-28T07:43:43;22.53;;;11.93;;
16119;SDS011;12670;53.502;10.252;2024-02-28T07:46:46;23.93;;;11.17;;
16119;SDS011;12670;53.502;10.252;2024-02-28T07:49:48;20.37;;;11.20;;
16119;SDS011;12670;53.502;10.252;2024-02-28T07:52:53;19.97;;;10.57;;
16119;SDS011;12670;53.502;10.252;2024-02-28T07:55:56;19.90;;;9.93;;
16119;SDS011;12670;53.502;10.252;2024-02-28T07:59:00;17.87;;;10.43;;
16119;SDS011;12670;53.502;10.252;2024-02-28T08:02:02;19.93;;;10.10;;
16119;SDS011;12670;53.502;10.252;2024-02-28T08:05:05;19.17;;;10.10;;
16119;SDS011;12670;53.502;10.252;2024-02-28T08:08:09;19.67;;;10.57;;
16119;SDS011;12670;53.502;10.252;2024-02-28T08:11:11;18.47;;;10.37;;
16119;SDS011;12670;53.502;10.252;2024-02-28T08:14:16;19.27;;;10.10;;
16119;SDS011;12670;53.502;10.252;2024-02-28T08:17:18;22.37;;;10.90;;
16119;SDS011;12670;53.502;10.252;2024-02-28T08:20:21;20.33;;;10.93;;
16119;SDS011;12670;53.502;10.252;2024-02-28T08:23:24;18.80;;;10.87;;
16119;SDS011;12670;53.502;10.252;2024-02-28T08:26:27;22.50;;;10.80;;
16119;SDS011;12670;53.502;10.252;2024-02-28T08:29:31;20.47;;;10.73;;
16119;SDS011;12670;53.502;10.252;2024-02-28T08:32:36;18.53;;;10.30;;
16119;SDS011;12670;53.502;10.252;2024-02-28T08:35:39;20.60;;;10.50;;
16119;SDS011;12670;53.502;10.252;2024-02-28T08:38:44;20.33;;;10.80;;
16119;SDS011;12670;53.502;10.252;2024-02-28T08:41:46;22.83;;;10.93;;
16119;SDS011;12670;53.502;10.252;2024-02-28T08:44:51;22.00;;;11.93;;
16119;SDS011;12670;53.502;10.252;2024-02-28T08:47:53;20.37;;;11.20;;
16119;SDS011;12670;53.502;10.252;2024-02-28T08:50:58;23.60;;;12.43;;
16119;SDS011;12670;53.502;10.252;2024-02-28T08:54:01;20.67;;;11.07;;
16119;SDS011;12670;53.502;10.252;2024-02-28T08:57:05;25.00;;;11.97;;
16119;SDS011;12670;53.502;10.252;2024-02-28T09:00:09;24.33;;;12.20;;
16119;SDS011;12670;53.502;10.252;2024-02-28T09:03:13;26.03;;;12.70;;
16119;SDS011;12670;53.502;10.252;2024-02-28T09:06:16;24.07;;;12.53;;
16119;SDS011;12670;53.502;10.252;2024-02-28T09:09:19;27.03;;;12.93;;
16119;SDS011;12670;53.502;10.252;2024-02-28T09:12:21;25.10;;;12.90;;
16119;SDS011;12670;53.502;10.252;2024-02-28T09:15:25;24.90;;;12.93;;
16119;SDS011;12670;53.502;10.252;2024-02-28T09:18:28;27.80;;;14.40;;
16119;SDS011;12670;53.502;10.252;2024-02-28T09:21:31;29.63;;;14.50;;
16119;SDS011;12670;53.502;10.252;2024-02-28T09:24:34;26.70;;;14.10;;
16119;SDS011;12670;53.502;10.252;2024-02-28T09:27:39;28.73;;;15.10;;
16119;SDS011;12670;53.502;10.252;2024-02-28T09:30:43;44.30;;;20.47;;
16119;SDS011;12670;53.502;10.252;2024-02-28T09:33:54;32.43;;;16.17;;
16119;SDS011;12670;53.502;10.252;2024-02-28T09:36:59;27.27;;;15.10;;
16119;SDS011;12670;53.502;10.252;2024-02-28T09:40:03;28.47;;;15.70;;
16119;SDS011;12670;53.502;10.252;2024-02-28T09:43:10;27.73;;;14.83;;
16119;SDS011;12670;53.502;10.252;2024-02-28T09:46:19;30.57;;;15.50;;
16119;SDS011;12670;53.502;10.252;2024-02-28T09:49:21;29.10;;;15.63;;
16119;SDS011;12670;53.502;10.252;2024-02-28T09:52:27;29.37;;;16.43;;
16119;SDS011;12670;53.502;10.252;2024-02-28T09:55:30;30.27;;;16.00;;
16119;SDS011;12670;53.502;10.252;2024-02-28T09:58:33;30.60;;;15.63;;
16119;SDS011;12670;53.502;10.252;2024-02-28T10:01:43;31.17;;;16.60;;
16119;SDS011;12670;53.502;10.252;2024-02-28T10:04:49;31.03;;;16.23;;
16119;SDS011;12670;53.502;10.252;2024-02-28T10:07:53;32.87;;;16.77;;
16119;SDS011;12670;53.502;10.252;2024-02-28T10:10:55;31.97;;;16.50;;
16119;SDS011;12670;53.502;10.252;2024-02-28T10:13:59;30.37;;;17.00;;
16119;SDS011;12670;53.502;10.252;2024-02-28T10:17:04;29.77;;;15.60;;
16119;SDS011;12670;53.502;10.252;2024-02-28T10:20:07;30.80;;;16.30;;
16119;SDS011;12670;53.502;10.252;2024-02-28T10:23:10;30.37;;;15.53;;
16119;SDS011;12670;53.502;10.252;2024-02-28T10:26:13;28.47;;;15.00;;
16119;SDS011;12670;53.502;10.252;2024-02-28T10:29:16;30.73;;;15.90;;
16119;SDS011;12670;53.502;10.252;2024-02-28T10:32:20;28.17;;;15.77;;
16119;SDS011;12670;53.502;10.252;2024-02-28T10:35:22;32.23;;;16.23;;
16119;SDS011;12670;53.502;10.252;2024-02-28T10:38:26;32.93;;;16.70;;
16119;SDS011;12670;53.502;10.252;2024-02-28T10:41:29;29.70;;;16.47;;
16119;SDS011;12670;53.502;10.252;2024-02-28T10:44:34;29.40;;;15.40;;
16119;SDS011;12670;53.502;10.252;2024-02-28T10:47:39;30.90;;;15.37;;
16119;SDS011;12670;53.502;10.252;2024-02-28T10:50:43;31.67;;;15.90;;
16119;SDS011;12670;53.502;10.252;2024-02-28T10:53:46;33.40;;;15.13;;
16119;SDS011;12670;53.502;10.252;2024-02-28T10:56:53;30.53;;;14.77;;
16119;SDS011;12670;53.502;10.252;2024-02-28T10:59:56;26.97;;;14.67;;
16119;SDS011;12670;53.502;10.252;2024-02-28T11:03:01;26.57;;;14.63;;
16119;SDS011;12670;53.502;10.252;2024-02-28T11:06:15;25.67;;;14.30;;
16119;SDS011;12670;53.502;10.252;2024-02-28T11:09:20;28.07;;;14.80;;
16119;SDS011;12670;53.502;10.252;2024-02-28T11:12:25;24.50;;;14.37;;
16119;SDS011;12670;53.502;10.252;2024-02-28T11:15:28;26.77;;;14.43;;
16119;SDS011;12670;53.502;10.252;2024-02-28T11:18:32;26.47;;;14.63;;
16119;SDS011;12670;53.502;10.252;2024-02-28T11:21:35;29.27;;;15.43;;
16119;SDS011;12670;53.502;10.252;2024-02-28T11:24:38;26.63;;;13.43;;
16119;SDS011;12670;53.502;10.252;2024-02-28T11:27:46;29.37;;;15.53;;
16119;SDS011;12670;53.502;10.252;2024-02-28T11:30:49;34.33;;;16.63;;
16119;SDS011;12670;53.502;10.252;2024-02-28T11:33:53;24.87;;;13.60;;
16119;SDS011;12670;53.502;10.252;2024-02-28T11:36:56;27.43;;;14.43;;
16119;SDS011;12670;53.502;10.252;2024-02-28T11:40:01;29.80;;;15.87;;
16119;SDS011;12670;53.502;10.252;2024-02-28T11:43:04;25.37;;;14.17;;
16119;SDS011;12670;53.502;10.252;2024-02-28T11:46:08;25.67;;;14.23;;
16119;SDS011;12670;53.502;10.252;2024-02-28T11:49:13;26.37;;;14.37;;
16119;SDS011;12670;53.502;10.252;2024-02-28T11:52:17;28.07;;;15.30;;
16119;SDS011;12670;53.502;10.252;2024-02-28T11:55:21;30.60;;;14.43;;
16119;SDS011;12670;53.502;10.252;2024-02-28T11:58:23;30.70;;;14.83;;
16119;SDS011;12670;53.502;10.252;2024-02-28T12:01:36;29.13;;;14.57;;
16119;SDS011;12670;53.502;10.252;2024-02-28T12:04:41;29.13;;;14.70;;
16119;SDS011;12670;53.502;10.252;2024-02-28T12:07:44;29.10;;;15.00;;
16119;SDS011;12670;53.502;10.252;2024-02-28T12:10:47;29.23;;;15.33;;
16119;SDS011;12670;53.502;10.252;2024-02-28T12:13:52;31.23;;;15.77;;
16119;SDS011;12670;53.502;10.252;2024-02-28T12:16:57;27.67;;;14.73;;
16119;SDS011;12670;53.502;10.252;2024-02-28T12:20:01;27.00;;;14.70;;
16119;SDS011;12670;53.502;10.252;2024-02-28T12:23:04;27.57;;;14.33;;
16119;SDS011;12670;53.502;10.252;2024-02-28T12:26:07;28.97;;;14.10;;
16119;SDS011;12670;53.502;10.252;2024-02-28T12:29:09;31.27;;;15.87;;
16119;SDS011;12670;53.502;10.252;2024-02-28T12:32:12;28.40;;;14.60;;
16119;SDS011;12670;53.502;10.252;2024-02-28T12:35:19;27.40;;;14.40;;
16119;SDS011;12670;53.502;10.252;2024-02-28T12:38:22;30.20;;;15.33;;
16119;SDS011;12670;53.502;10.252;2024-02-28T12:41:25;27.37;;;15.27;;
16119;SDS011;12670;53.502;10.252;2024-02-28T12:44:28;31.20;;;15.17;;
16119;SDS011;12670;53.502;10.252;2024-02-28T12:47:30;31.30;;;15.03;;
16119;SDS011;12670;53.502;10.252;2024-02-28T12:50:34;27.23;;;14.93;;
16119;SDS011;12670;53.502;10.252;2024-02-28T12:53:37;26.87;;;13.43;;
16119;SDS011;12670;53.502;10.252;2024-02-28T12:56:40;25.70;;;13.73;;
16119;SDS011;12670;53.502;10.252;2024-02-28T12:59:44;26.60;;;14.10;;
16119;SDS011;12670;53.502;10.252;2024-02-28T13:02:51;27.90;;;14.50;;
16119;SDS011;12670;53.502;10.252;2024-02-28T13:05:55;26.50;;;14.13;;
16119;SDS011;12670;53.502;10.252;2024-02-28T13:08:57;31.63;;;15.03;;
16119;SDS011;12670;53.502;10.252;2024-02-28T13:12:00;25.63;;;14.40;;
16119;SDS011;12670;53.502;10.252;2024-02-28T13:15:04;27.73;;;14.57;;
16119;SDS011;12670;53.502;10.252;2024-02-28T13:18:07;28.73;;;14.50;;
16119;SDS011;12670;53.502;10.252;2024-02-28T13:21:13;29.63;;;15.03;;
16119;SDS011;12670;53.502;10.252;2024-02-28T13:24:16;26.83;;;13.73;;
16119;SDS011;12670;53.502;10.252;2024-02-28T13:27:19;30.00;;;14.60;;
16119;SDS011;12670;53.502;10.252;2024-02-28T13:30:21;31.87;;;17.40;;
16119;SDS011;12670;53.502;10.252;2024-02-28T13:33:24;30.80;;;16.10;;
16119;SDS011;12670;53.502;10.252;2024-02-28T13:36:29;28.77;;;13.97;;
16119;SDS011;12670;53.502;10.252;2024-02-28T13:39:33;32.83;;;15.47;;
16119;SDS011;12670;53.502;10.252;2024-02-28T13:42:36;29.03;;;14.90;;
16119;SDS011;12670;53.502;10.252;2024-02-28T13:45:39;26.67;;;13.90;;
16119;SDS011;12670;53.502;10.252;2024-02-28T13:48:44;24.53;;;13.53;;
16119;SDS011;12670;53.502;10.252;2024-02-28T13:51:49;32.83;;;14.30;;
16119;SDS011;12670;53.502;10.252;2024-02-28T13:54:52;27.97;;;13.77;;
16119;SDS011;12670;53.502;10.252;2024-02-28T13:57:55;27.20;;;14.23;;
16119;SDS011;12670;53.502;10.252;2024-02-28T14:00:58;25.97;;;13.10;;
16119;SDS011;12670;53.502;10.252;2024-02-28T14:04:01;24.23;;;12.17;;
16119;SDS011;12670;53.502;10.252;2024-02-28T14:07:06;23.00;;;12.73;;
16119;SDS011;12670;53.502;10.252;2024-02-28T14:10:09;25.47;;;11.63;;
16119;SDS011;12670;53.502;10.252;2024-02-28T14:13:12;23.03;;;12.10;;
16119;SDS011;12670;53.502;10.252;2024-02-28T14:16:16;22.10;;;11.73;;
16119;SDS011;12670;53.502;10.252;2024-02-28T14:19:20;22.67;;;12.27;;
16119;SDS011;12670;53.502;10.252;2024-02-28T14:22:24;21.37;;;11.97;;
16119;SDS011;12670;53.502;10.252;2024-02-28T14:25:28;26.40;;;13.13;;
16119;SDS011;12670;53.502;10.252;2024-02-28T14:28:31;20.97;;;12.13;;
16119;SDS011;12670;53.502;10.252;2024-02-28T14:31:34;21.83;;;12.37;;
16119;SDS011;12670;53.502;10.252;2024-02-28T14:34:37;23.00;;;12.50;;
16119;SDS011;12670;53.502;10.252;2024-02-28T14:37:41;22.60;;;11.77;;
16119;SDS011;12670;53.502;10.252;2024-02-28T14:40:45;23.17;;;12.77;;
16119;SDS011;12670;53.502;10.252;2024-02-28T14:43:48;21.93;;;11.47;;
16119;SDS011;12670;53.502;10.252;2024-02-28T14:46:50;25.17;;;12.57;;
16119;SDS011;12670;53.502;10.252;2024-02-28T14:49:54;24.80;;;12.63;;
16119;SDS011;12670;53.502;10.252;2024-02-28T14:52:58;21.93;;;11.80;;
16119;SDS011;12670;53.502;10.252;2024-02-28T14:56:00;27.23;;;12.97;;
16119;SDS011;12670;53.502;10.252;2024-02-28T14:59:03;19.93;;;11.23;;
16119;SDS011;12670;53.502;10.252;2024-02-28T15:02:06;19.27;;;10.43;;
16119;SDS011;12670;53.502;10.252;2024-02-28T15:05:11;21.57;;;10.87;;
16119;SDS011;12670;53.502;10.252;2024-02-28T15:08:15;21.87;;;11.30;;
16119;SDS011;12670;53.502;10.252;2024-02-28T15:11:18;21.53;;;11.13;;
16119;SDS011;12670;53.502;10.252;2024-02-28T15:14:21;24.27;;;11.30;;
16119;SDS011;12670;53.502;10.252;2024-02-28T15:17:24;21.93;;;10.70;;
16119;SDS011;12670;53.502;10.252;2024-02-28T15:20:26;23.67;;;10.43;;
16119;SDS011;12670;53.502;10.252;2024-02-28T15:23:30;20.60;;;10.87;;
16119;SDS011;12670;53.502;10.252;2024-02-28T15:26:33;32.30;;;15.63;;
16119;SDS011;12670;53.502;10.252;2024-02-28T15:29:46;26.30;;;12.03;;
16119;SDS011;12670;53.502;10.252;2024-02-28T15:32:49;20.60;;;10.70;;
16119;SDS011;12670;53.502;10.252;2024-02-28T15:35:53;22.17;;;10.83;;
16119;SDS011;12670;53.502;10.252;2024-02-28T15:38:57;19.73;;;9.87;;
16119;SDS011;12670;53.502;10.252;2024-02-28T15:42:00;20.53;;;10.20;;
16119;SDS011;12670;53.502;10.252;2024-02-28T15:45:03;22.73;;;10.80;;
16119;SDS011;12670;53.502;10.252;2024-02-28T15:48:07;21.07;;;10.97;;
16119;SDS011;12670;53.502;10.252;2024-02-28T15:51:10;24.67;;;11.17;;
16119;SDS011;12670;53.502;10.252;2024-02-28T15:54:14;22.60;;;11.33;;
16119;SDS011;12670;53.502;10.252;2024-02-28T15:57:17;29.97;;;11.17;;
16119;SDS011;12670;53.502;10.252;2024-02-28T16:00:20;20.80;;;10.90;;
16119;SDS011;12670;53.502;10.252;2024-02-28T16:03:23;23.23;;;11.13;;
16119;SDS011;12670;53.502;10.252;2024-02-28T16:06:26;25.40;;;12.23;;
16119;SDS011;12670;53.502;10.252;2024-02-28T16:09:41;25.87;;;10.90;;
16119;SDS011;12670;53.502;10.252;2024-02-28T16:12:44;21.50;;;10.90;;
16119;SDS011;12670;53.502;10.252;2024-02-28T16:15:47;24.87;;;11.87;;
16119;SDS011;12670;53.502;10.252;2024-02-28T16:18:50;24.50;;;10.90;;
16119;SDS011;12670;53.502;10.252;2024-02-28T16:21:53;25.07;;;13.47;;
16119;SDS011;12670;53.502;10.252;2024-02-28T16:24:58;22.53;;;10.77;;
16119;SDS011;12670;53.502;10.252;2024-02-28T16:28:01;35.37;;;16.30;;
16119;SDS011;12670;53.502;10.252;2024-02-28T16:31:03;31.27;;;14.67;;
16119;SDS011;12670;53.502;10.252;2024-02-28T16:34:07;43.03;;;22.10;;
16119;SDS011;12670;53.502;10.252;2024-02-28T16:37:10;35.00;;;10.83;;
16119;SDS011;12670;53.502;10.252;2024-02-28T16:40:14;23.43;;;10.43;;
16119;SDS011;12670;53.502;10.252;2024-02-28T16:43:17;21.53;;;9.83;;
16119;SDS011;12670;53.502;10.252;2024-02-28T16:46:19;19.73;;;9.80;;
16119;SDS011;12670;53.502;10.252;2024-02-28T16:49:22;24.03;;;11.47;;
16119;SDS011;12670;53.502;10.252;2024-02-28T16:52:25;24.13;;;11.90;;
16119;SDS011;12670;53.502;10.252;2024-02-28T16:55:30;20.10;;;10.90;;
16119;SDS011;12670;53.502;10.252;2024-02-28T16:58:32;20.70;;;11.03;;
16119;SDS011;12670;53.502;10.252;2024-02-28T17:01:37;22.90;;;10.90;;
16119;SDS011;12670;53.502;10.252;2024-02-28T17:04:40;21.43;;;10.70;;
16119;SDS011;12670;53.502;10.252;2024-02-28T17:07:43;21.10;;;10.87;;
16119;SDS011;12670;53.502;10.252;2024-02-28T17:10:47;22.90;;;11.33;;
16119;SDS011;12670;53.502;10.252;2024-02-28T17:13:49;20.23;;;10.67;;
16119;SDS011;12670;53.502;10.252;2024-02-28T17:16:52;30.00;;;10.60;;
16119;SDS011;12670;53.502;10.252;2024-02-28T17:19:55;23.97;;;11.17;;
16119;SDS011;12670;53.502;10.252;2024-02-28T17:22:58;28.43;;;12.47;;
16119;SDS011;12670;53.502;10.252;2024-02-28T17:26:03;25.40;;;12.20;;
16119;SDS011;12670;53.502;10.252;2024-02-28T17:29:06;24.33;;;11.37;;
16119;SDS011;12670;53.502;10.252;2024-02-28T17:32:09;26.33;;;11.90;;
16119;SDS011;12670;53.502;10.252;2024-02-28T17:35:12;27.63;;;12.37;;
16119;SDS011;12670;53.502;10.252;2024-02-28T17:38:15;24.80;;;12.40;;
16119;SDS011;12670;53.502;10.252;2024-02-28T17:41:19;24.30;;;12.60;;